Buckeye, West Virginia
Current Conditions -  °F | °C
As of 8:15 AM on Tuesday 21 Oct 2014 (Local Time) from KHSP Reporting Station
Moderate Fog Moderate Fog  
Wind Chill: 38°   Ceiling: 300
Heat Index: 45°   Visibility: 0mi
Dew Point: 45°   Wind: 14mph
Humidity: 100%   Direction: 270°W
Pressure: 29.89"   Gusts: NA
Location:  38.19°N, 80.13°W
Report Text: KHSP 211215Z AUTO 27012KT M1/4SM FG OVC003 07/07 A2989 RMK AO2 T00700070
Loading
Personal Weather Stations






























Interactive Weather Map
Tropical Storm Tracking
New forecast layout! Learn more

10-Day Weather Forecast

Advertisements
Track Severe Weather on mobile